Time;durP1;ratioP1;P1;durP2;ratioP2;P2;SDS_P1;SDS_P2;PMS_P1;PMS_P2;Temp;Humidity;BMP_temperature;BMP_pressure;BME280_temperature;BME280_humidity;BME280_pressure;Samples;Min_cycle;Max_cycle;Signal;HPM_P1;HPM_P2
2022/05/31 00:01:00;;;;;;;5.85;4.05;;;9.80;99.90;;;;;;4975630;28;20034;-56
2022/05/31 00:03:26;;;;;;;4.70;4.05;;;9.70;99.90;;;;;;4981609;28;20043;-58
2022/05/31 00:05:51;;;;;;;6.15;4.25;;;9.70;99.90;;;;;;4974337;28;20026;-56
2022/05/31 00:08:17;;;;;;;5.28;4.05;;;9.70;99.90;;;;;;4986101;28;20046;-56
2022/05/31 00:10:43;;;;;;;4.50;3.75;;;9.60;99.90;;;;;;4972066;28;20038;-58
2022/05/31 00:13:09;;;;;;;6.55;3.83;;;9.60;99.90;;;;;;4961243;28;20038;-59
2022/05/31 00:15:35;;;;;;;4.85;3.90;;;9.60;99.90;;;;;;4973116;28;20066;-57
2022/05/31 00:18:00;;;;;;;6.22;3.72;;;9.60;99.90;;;;;;4971992;28;20091;-57
2022/05/31 00:20:26;;;;;;;6.38;4.10;;;9.50;99.90;;;;;;4972769;28;20050;-58
2022/05/31 00:22:52;;;;;;;3.70;3.30;;;9.50;99.90;;;;;;4979978;28;20038;-59
2022/05/31 00:25:18;;;;;;;4.68;3.83;;;9.50;99.90;;;;;;4972679;28;20073;-58
2022/05/31 00:27:44;;;;;;;6.60;4.32;;;9.50;99.90;;;;;;4968488;28;20069;-57
2022/05/31 00:30:11;;;;;;;5.88;4.20;;;9.40;99.90;;;;;;4969382;28;20077;-58
2022/05/31 00:32:41;;;;;;;5.28;4.43;;;9.40;99.90;;;;;;4960149;28;20038;-57
2022/05/31 00:35:20;;;;;;;8.15;4.32;;;9.40;99.90;;;;;;4975511;28;20718;-58
2022/05/31 00:37:46;;;;;;;5.45;3.60;;;9.30;99.90;;;;;;4975518;28;20417;-58
2022/05/31 00:40:15;;;;;;;5.93;3.80;;;9.30;99.90;;;;;;4985418;28;20547;-58
2022/05/31 00:42:58;;;;;;;4.82;3.83;;;9.30;99.90;;;;;;4969753;28;20042;-59
2022/05/31 00:45:47;;;;;;;6.70;4.00;;;9.20;99.90;;;;;;4975657;28;20082;-57
2022/05/31 00:48:27;;;;;;;6.65;4.18;;;9.20;99.90;;;;;;4967487;28;20042;-58
2022/05/31 00:51:00;;;;;;;6.72;4.50;;;9.20;99.90;;;;;;4966393;28;20046;-57
2022/05/31 00:53:30;;;;;;;5.18;3.72;;;9.20;99.90;;;;;;4970832;28;20047;-57
2022/05/31 00:56:21;;;;;;;6.05;4.43;;;9.10;99.90;;;;;;4967055;28;20729;-59
2022/05/31 00:59:28;;;;;;;6.68;4.03;;;9.10;99.90;;;;;;4974404;28;20452;-56
2022/05/31 01:01:56;;;;;;;6.57;3.90;;;9.10;99.90;;;;;;4975840;28;20060;-58
2022/05/31 01:04:39;;;;;;;6.68;4.30;;;9.10;99.90;;;;;;4969708;28;20053;-58
2022/05/31 01:07:06;;;;;;;5.68;4.28;;;9.10;99.90;;;;;;4981214;28;20042;-56
2022/05/31 01:09:32;;;;;;;5.00;4.47;;;9.00;99.90;;;;;;4967501;28;20053;-58
2022/05/31 01:11:59;;;;;;;4.25;3.53;;;9.00;99.90;;;;;;4974575;28;20042;-58
2022/05/31 01:14:26;;;;;;;5.20;3.97;;;9.00;99.90;;;;;;4970315;28;20042;-56
2022/05/31 01:17:14;;;;;;;5.15;3.65;;;9.00;99.90;;;;;;4972026;28;20046;-58
2022/05/31 01:20:01;;;;;;;4.28;3.40;;;9.00;99.90;;;;;;4975855;28;20065;-57
2022/05/31 01:22:36;;;;;;;5.53;3.83;;;8.90;99.90;;;;;;4967773;28;20042;-57
2022/05/31 01:25:11;;;;;;;6.97;4.32;;;8.90;99.90;;;;;;4969482;28;20047;-58
2022/05/31 01:28:05;;;;;;;4.82;4.00;;;8.90;99.90;;;;;;4968504;28;20129;-56
2022/05/31 01:30:35;;;;;;;4.03;3.47;;;8.90;99.90;;;;;;4963102;28;20139;-58
2022/05/31 01:33:08;;;;;;;5.55;4.00;;;8.80;99.90;;;;;;4973517;28;20042;-59
2022/05/31 01:35:35;;;;;;;5.72;3.78;;;8.80;99.90;;;;;;4967874;28;20026;-56
2022/05/31 01:38:19;;;;;;;7.88;5.07;;;8.80;99.90;;;;;;4972895;28;20089;-58
2022/05/31 01:40:59;;;;;;;4.28;2.85;;;8.80;99.90;;;;;;4969986;28;20054;-58
2022/05/31 01:43:25;;;;;;;4.57;3.38;;;8.80;99.90;;;;;;4974020;28;20101;-57
2022/05/31 01:45:55;;;;;;;5.07;3.65;;;8.90;99.90;;;;;;4972785;28;20527;-57
2022/05/31 01:48:23;;;;;;;4.70;3.85;;;8.90;99.90;;;;;;4970461;28;20045;-56
2022/05/31 01:50:48;;;;;;;4.80;4.10;;;8.90;99.90;;;;;;4966489;28;20085;-57
2022/05/31 01:53:15;;;;;;;4.57;3.38;;;8.90;99.90;;;;;;4968089;28;20117;-56
2022/05/31 01:55:43;;;;;;;5.25;4.05;;;9.00;99.90;;;;;;4973459;28;20046;-58
2022/05/31 01:58:16;;;;;;;3.83;3.13;;;9.10;99.90;;;;;;4982110;28;20049;-56
2022/05/31 02:00:42;;;;;;;4.05;3.35;;;9.10;99.90;;;;;;4977855;28;20140;-57
2022/05/31 02:03:07;;;;;;;6.28;4.05;;;9.10;99.90;;;;;;4968717;28;20718;-57
2022/05/31 02:05:34;;;;;;;4.60;3.55;;;9.20;99.90;;;;;;4960693;28;20047;-58
2022/05/31 02:08:03;;;;;;;4.10;3.38;;;9.20;99.90;;;;;;4983576;28;20043;-58
2022/05/31 02:10:32;;;;;;;4.97;3.42;;;9.20;99.90;;;;;;4967926;28;23327;-58
2022/05/31 02:12:58;;;;;;;5.30;2.97;;;9.30;99.90;;;;;;4965582;28;20046;-58
2022/05/31 02:15:25;;;;;;;6.75;4.15;;;9.30;99.90;;;;;;4971300;28;20743;-58
2022/05/31 02:17:51;;;;;;;4.90;4.22;;;9.40;99.90;;;;;;4969673;28;20548;-57
2022/05/31 02:20:16;;;;;;;4.20;2.88;;;9.40;99.90;;;;;;4973943;28;20055;-58
2022/05/31 02:22:42;;;;;;;4.10;3.10;;;9.50;99.90;;;;;;4974719;28;20460;-58
2022/05/31 02:25:09;;;;;;;8.95;4.03;;;9.50;99.90;;;;;;4966466;28;20125;-57
2022/05/31 02:27:35;;;;;;;7.82;4.57;;;9.50;99.90;;;;;;4969036;28;20161;-58
2022/05/31 02:30:01;;;;;;;5.50;4.15;;;9.50;99.90;;;;;;4979766;28;20097;-58
2022/05/31 02:32:27;;;;;;;4.38;3.05;;;9.50;99.90;;;;;;4976129;28;20437;-58
2022/05/31 02:34:54;;;;;;;4.63;3.08;;;9.50;99.90;;;;;;4971684;28;20046;-57
2022/05/31 02:37:21;;;;;;;5.68;3.60;;;9.50;99.90;;;;;;4952109;28;20049;-57
2022/05/31 02:39:47;;;;;;;8.15;4.20;;;9.60;99.90;;;;;;4979945;28;20088;-58
2022/05/31 02:42:14;;;;;;;4.00;3.10;;;9.50;99.90;;;;;;4968679;28;20054;-58
2022/05/31 02:44:40;;;;;;;4.82;3.13;;;9.50;99.90;;;;;;4967773;28;20674;-56
2022/05/31 02:47:08;;;;;;;5.50;3.88;;;9.60;99.90;;;;;;4978172;28;20045;-58
2022/05/31 02:49:35;;;;;;;6.05;3.10;;;9.60;99.90;;;;;;4967901;28;20125;-58
2022/05/31 02:52:01;;;;;;;5.38;4.43;;;9.60;99.90;;;;;;4971139;28;20035;-58
2022/05/31 02:54:27;;;;;;;5.85;4.00;;;9.60;99.90;;;;;;4968979;28;20039;-58
2022/05/31 02:56:53;;;;;;;4.78;2.85;;;9.60;99.90;;;;;;4973267;28;20367;-58
2022/05/31 02:59:19;;;;;;;6.13;3.67;;;9.60;99.90;;;;;;4972443;28;20056;-57
2022/05/31 03:01:48;;;;;;;4.78;3.75;;;9.70;99.90;;;;;;4968328;28;20441;-58
2022/05/31 03:04:14;;;;;;;5.57;3.33;;;9.70;99.90;;;;;;4967245;28;20129;-59
2022/05/31 03:06:40;;;;;;;3.83;3.05;;;9.60;99.90;;;;;;4969509;28;20209;-57
2022/05/31 03:09:07;;;;;;;5.15;3.33;;;9.60;99.90;;;;;;4971834;28;20038;-56
2022/05/31 03:11:42;;;;;;;4.50;3.40;;;9.70;99.90;;;;;;4968562;28;20034;-58
2022/05/31 03:14:27;;;;;;;4.50;3.15;;;9.70;99.90;;;;;;4973631;28;20046;-58
2022/05/31 03:17:10;;;;;;;3.95;2.75;;;9.60;99.90;;;;;;4970435;28;20041;-57
2022/05/31 03:19:42;;;;;;;5.75;4.00;;;9.60;99.90;;;;;;4969242;28;20121;-56
2022/05/31 03:22:14;;;;;;;5.85;3.83;;;9.60;99.90;;;;;;4980559;28;20045;-57
2022/05/31 03:24:49;;;;;;;7.28;3.90;;;9.70;99.90;;;;;;4970248;28;20081;-58
2022/05/31 03:27:14;;;;;;;4.93;3.85;;;9.60;99.90;;;;;;4970591;28;20900;-57
2022/05/31 03:29:45;;;;;;;5.60;2.85;;;9.60;99.90;;;;;;4968610;28;20047;-58
2022/05/31 03:32:11;;;;;;;5.15;2.97;;;9.70;99.90;;;;;;4968763;28;20042;-58
2022/05/31 03:34:37;;;;;;;4.22;3.03;;;9.70;99.90;;;;;;4969231;28;20042;-58
2022/05/31 03:37:04;;;;;;;3.53;2.80;;;9.70;99.90;;;;;;4966906;28;20042;-58
2022/05/31 03:39:30;;;;;;;4.47;3.72;;;9.70;99.90;;;;;;4968396;28;20045;-57
2022/05/31 03:41:55;;;;;;;4.68;3.33;;;9.80;99.90;;;;;;4969185;28;20176;-58
2022/05/31 03:44:21;;;;;;;3.58;2.78;;;9.80;99.90;;;;;;4977463;28;20696;-58
2022/05/31 03:46:49;;;;;;;6.35;4.10;;;9.80;99.90;;;;;;4979023;28;20035;-58
2022/05/31 03:49:15;;;;;;;4.65;3.15;;;9.80;99.90;;;;;;4982568;28;20133;-59
2022/05/31 03:51:41;;;;;;;4.47;3.40;;;9.80;99.90;;;;;;4984749;28;20117;-57
2022/05/31 03:54:06;;;;;;;4.32;3.40;;;9.80;99.90;;;;;;4981804;28;20034;-58
2022/05/31 03:56:35;;;;;;;3.40;2.72;;;9.80;99.90;;;;;;4972044;28;20042;-57
2022/05/31 03:59:00;;;;;;;4.50;3.08;;;9.80;99.90;;;;;;4971465;28;20038;-57
2022/05/31 04:01:26;;;;;;;5.10;3.58;;;9.90;99.90;;;;;;4981599;28;20754;-57
2022/05/31 04:03:52;;;;;;;5.32;3.85;;;9.90;99.90;;;;;;4967128;28;20046;-59
2022/05/31 04:06:18;;;;;;;4.28;3.53;;;9.90;99.90;;;;;;4967509;28;20350;-59
2022/05/31 04:08:44;;;;;;;3.85;2.50;;;9.90;99.90;;;;;;4972630;28;20128;-59
2022/05/31 04:11:10;;;;;;;4.05;2.50;;;9.90;99.90;;;;;;4966386;28;20393;-57
2022/05/31 04:13:35;;;;;;;7.35;3.22;;;10.00;99.90;;;;;;4969103;28;20026;-55
2022/05/31 04:16:12;;;;;;;4.53;3.08;;;10.00;99.90;;;;;;4967209;28;20057;-58
2022/05/31 04:18:39;;;;;;;5.05;3.50;;;10.00;99.90;;;;;;4966512;28;20038;-61
2022/05/31 04:21:09;;;;;;;4.85;2.90;;;10.00;99.90;;;;;;4953557;28;20430;-57
2022/05/31 04:26:19;;;;;;;5.50;3.42;;;10.00;99.90;;;;;;4968188;28;20059;-58
2022/05/31 04:28:45;;;;;;;4.13;2.90;;;10.00;99.90;;;;;;4967768;28;20043;-61
2022/05/31 04:31:11;;;;;;;4.57;3.08;;;10.10;99.90;;;;;;4966904;28;20733;-58
2022/05/31 04:33:37;;;;;;;6.03;4.20;;;10.00;99.90;;;;;;4969366;28;20039;-56
2022/05/31 04:36:06;;;;;;;6.03;4.60;;;10.00;99.90;;;;;;4961700;28;20918;-57
2022/05/31 04:38:33;;;;;;;5.15;4.07;;;10.10;99.90;;;;;;4964760;28;22241;-56
2022/05/31 04:40:59;;;;;;;4.95;3.28;;;10.10;99.90;;;;;;5000803;23;20042;-62
2022/05/31 04:43:24;;;;;;;4.80;3.95;;;10.10;99.90;;;;;;4989370;28;20113;-62
2022/05/31 04:45:50;;;;;;;4.55;3.58;;;10.00;99.90;;;;;;4971821;28;20038;-66
2022/05/31 04:48:16;;;;;;;5.90;4.07;;;10.10;99.90;;;;;;4969444;28;20128;-66
2022/05/31 04:50:42;;;;;;;4.43;3.00;;;10.10;99.90;;;;;;4986880;28;20570;-62
2022/05/31 04:53:08;;;;;;;6.10;4.22;;;10.10;99.90;;;;;;4984677;28;20436;-62
2022/05/31 04:55:33;;;;;;;5.72;3.08;;;10.20;99.90;;;;;;4988000;28;20061;-63
2022/05/31 04:57:59;;;;;;;5.18;3.78;;;10.20;99.90;;;;;;4984891;28;20046;-63
2022/05/31 05:00:25;;;;;;;6.22;4.10;;;10.20;99.90;;;;;;4966475;28;20050;-62
2022/05/31 05:02:50;;;;;;;6.15;4.53;;;10.20;99.90;;;;;;4986803;28;20554;-65
2022/05/31 05:05:16;;;;;;;5.00;3.85;;;10.20;99.90;;;;;;4983828;28;20430;-63
2022/05/31 05:07:42;;;;;;;5.32;4.38;;;10.20;99.90;;;;;;4994827;28;20061;-64
2022/05/31 05:10:09;;;;;;;4.72;3.60;;;10.20;99.90;;;;;;4983856;28;20503;-62
2022/05/31 05:12:36;;;;;;;6.82;4.00;;;10.20;99.90;;;;;;4990037;28;20092;-62
2022/05/31 05:15:02;;;;;;;4.25;2.95;;;10.20;99.90;;;;;;4989620;28;20051;-63
2022/05/31 05:17:28;;;;;;;6.05;4.70;;;10.30;99.90;;;;;;4999574;28;20104;-67
2022/05/31 05:19:54;;;;;;;3.80;2.90;;;10.30;99.90;;;;;;4984422;28;20049;-64
2022/05/31 05:22:19;;;;;;;8.75;4.80;;;10.30;99.90;;;;;;4987655;28;20936;-63
2022/05/31 05:24:45;;;;;;;6.90;4.82;;;10.40;99.90;;;;;;4984009;28;20638;-63
2022/05/31 05:27:11;;;;;;;5.45;3.80;;;10.40;99.90;;;;;;4999794;28;20037;-62
2022/05/31 05:32:21;;;;;;;6.47;4.72;;;10.40;99.90;;;;;;4974503;28;20042;-63
2022/05/31 05:34:52;;;;;;;5.78;4.55;;;10.50;99.90;;;;;;4983277;28;20042;-62
2022/05/31 05:37:19;;;;;;;6.03;3.60;;;10.50;99.90;;;;;;4964909;28;20173;-64
2022/05/31 05:39:45;;;;;;;4.95;3.75;;;10.50;99.90;;;;;;4984193;28;20046;-62
2022/05/31 05:42:12;;;;;;;6.05;4.30;;;10.60;99.90;;;;;;4984250;28;20056;-68
2022/05/31 05:44:38;;;;;;;6.97;4.65;;;10.60;99.90;;;;;;4986256;28;20485;-64
2022/05/31 05:47:08;;;;;;;5.60;3.85;;;10.60;99.90;;;;;;4966425;28;20039;-62
2022/05/31 05:49:33;;;;;;;6.80;4.38;;;10.70;99.90;;;;;;4967996;28;20053;-62
2022/05/31 05:52:00;;;;;;;4.93;3.92;;;10.70;99.90;;;;;;4981624;28;20406;-62
2022/05/31 05:54:26;;;;;;;5.53;3.33;;;10.80;99.90;;;;;;4965516;28;20722;-62
2022/05/31 05:56:52;;;;;;;6.10;3.95;;;10.80;99.90;;;;;;4987934;28;20046;-67
2022/05/31 05:59:20;;;;;;;6.00;4.32;;;10.90;99.90;;;;;;4968536;28;20045;-65
2022/05/31 06:01:50;;;;;;;7.97;4.22;;;10.90;99.90;;;;;;4987648;28;20578;-63
2022/05/31 06:04:31;;;;;;;5.22;3.88;;;10.90;99.90;;;;;;4985592;28;20811;-62
2022/05/31 06:07:18;;;;;;;7.20;4.68;;;11.00;99.90;;;;;;4984756;28;20037;-66
2022/05/31 06:09:49;;;;;;;4.78;4.07;;;11.00;99.90;;;;;;4985795;28;20756;-62
2022/05/31 06:12:22;;;;;;;6.63;5.28;;;10.90;99.90;;;;;;4979816;28;20346;-62
2022/05/31 06:15:01;;;;;;;5.88;4.55;;;10.90;99.90;;;;;;4984431;28;20038;-64
2022/05/31 06:17:34;;;;;;;6.50;3.97;;;10.90;99.90;;;;;;4979882;28;20135;-62
2022/05/31 06:20:03;;;;;;;5.95;4.40;;;10.90;99.90;;;;;;4966280;28;20129;-62
2022/05/31 06:22:30;;;;;;;7.38;4.53;;;10.90;99.90;;;;;;4976478;28;20124;-62
2022/05/31 06:24:58;;;;;;;4.93;3.85;;;10.90;99.90;;;;;;4984784;28;20058;-65
2022/05/31 06:27:24;;;;;;;6.43;3.97;;;11.00;99.90;;;;;;4987618;28;20331;-65
2022/05/31 06:29:50;;;;;;;5.68;3.75;;;11.00;99.90;;;;;;4982476;28;20050;-63
2022/05/31 06:32:16;;;;;;;4.55;3.88;;;11.10;99.90;;;;;;4985681;28;20041;-62
2022/05/31 06:34:43;;;;;;;6.30;3.90;;;11.10;99.90;;;;;;5006123;28;20478;-63
2022/05/31 06:37:15;;;;;;;4.80;3.33;;;11.20;99.90;;;;;;4987668;28;20436;-63
2022/05/31 06:39:43;;;;;;;5.47;4.28;;;11.20;99.90;;;;;;4994407;28;20065;-65
2022/05/31 06:42:10;;;;;;;10.73;5.13;;;11.30;99.90;;;;;;4988006;28;20096;-63
2022/05/31 06:44:39;;;;;;;6.80;4.78;;;11.40;99.90;;;;;;4968618;28;20221;-62
2022/05/31 06:47:05;;;;;;;8.65;4.85;;;11.30;99.90;;;;;;4987540;28;20037;-63
2022/05/31 06:49:34;;;;;;;10.07;5.30;;;11.30;99.90;;;;;;4971051;28;20451;-62
2022/05/31 06:57:35;;;;;;;6.45;4.53;;;11.40;99.90;;;;;;4992164;28;20528;-62
2022/05/31 07:00:02;;;;;;;8.07;4.10;;;11.50;99.90;;;;;;5001015;28;20575;-66
2022/05/31 07:02:28;;;;;;;5.75;4.53;;;11.60;99.90;;;;;;5002511;28;20071;-62
2022/05/31 07:04:54;;;;;;;5.28;4.47;;;11.60;99.90;;;;;;4994889;28;22005;-62
2022/05/31 07:07:20;;;;;;;11.55;4.22;;;11.70;99.90;;;;;;5009378;28;20503;-61
2022/05/31 07:09:46;;;;;;;6.05;4.43;;;11.70;99.90;;;;;;4987671;28;20201;-61
2022/05/31 07:12:12;;;;;;;6.22;4.85;;;11.80;99.90;;;;;;4983335;28;20038;-63
2022/05/31 07:14:38;;;;;;;5.93;4.13;;;11.90;99.90;;;;;;4966477;28;20056;-65
2022/05/31 07:17:04;;;;;;;7.82;4.25;;;12.00;99.90;;;;;;4982220;28;20038;-62
2022/05/31 07:19:30;;;;;;;6.35;4.47;;;12.00;99.90;;;;;;4983574;28;20042;-62
2022/05/31 07:22:00;;;;;;;8.32;5.25;;;12.10;99.90;;;;;;4998207;28;20475;-62
2022/05/31 07:24:27;;;;;;;6.25;4.57;;;12.20;99.90;;;;;;4980073;28;20120;-62
2022/05/31 07:26:53;;;;;;;6.68;4.65;;;12.20;99.90;;;;;;4998572;28;20049;-65
2022/05/31 07:29:19;;;;;;;6.22;4.47;;;12.20;99.90;;;;;;4982715;28;20623;-65
2022/05/31 07:31:45;;;;;;;5.30;4.70;;;12.30;99.90;;;;;;4985486;28;20046;-62
2022/05/31 07:34:15;;;;;;;7.50;4.72;;;12.40;99.90;;;;;;4964994;28;20038;-62
2022/05/31 07:36:42;;;;;;;7.82;4.85;;;12.50;99.90;;;;;;4990150;28;20121;-61
2022/05/31 07:39:14;;;;;;;6.00;4.90;;;12.60;99.90;;;;;;4978803;28;20061;-61
2022/05/31 07:41:41;;;;;;;8.85;4.53;;;12.70;99.90;;;;;;4983138;28;20460;-67
2022/05/31 07:44:07;;;;;;;6.75;3.97;;;12.80;99.90;;;;;;4986047;28;20042;-62
2022/05/31 07:46:33;;;;;;;6.45;4.10;;;12.90;99.90;;;;;;4977713;28;20038;-62
2022/05/31 07:49:00;;;;;;;5.38;4.20;;;13.10;99.90;;;;;;4997622;28;20470;-62
2022/05/31 07:51:27;;;;;;;6.32;4.60;;;13.20;99.90;;;;;;4993364;28;20115;-63
2022/05/31 07:53:53;;;;;;;5.80;4.20;;;13.30;99.90;;;;;;5003823;28;20657;-61
2022/05/31 07:56:19;;;;;;;6.38;3.40;;;13.50;99.90;;;;;;5006084;28;20045;-64
2022/05/31 07:58:46;;;;;;;5.07;3.60;;;13.70;99.90;;;;;;5006058;28;20037;-62
2022/05/31 08:01:18;;;;;;;6.40;3.92;;;13.90;99.90;;;;;;4983094;28;20048;-62
2022/05/31 08:03:44;;;;;;;6.20;3.80;;;14.00;99.90;;;;;;5001997;28;20053;-62
2022/05/31 08:06:16;;;;;;;7.07;3.70;;;14.10;99.90;;;;;;4994096;28;20801;-62
2022/05/31 08:08:42;;;;;;;5.18;3.85;;;14.20;99.90;;;;;;4974255;28;20063;-64
2022/05/31 08:11:11;;;;;;;4.95;3.90;;;14.30;99.90;;;;;;4989929;28;20042;-62
2022/05/31 08:13:38;;;;;;;6.15;3.78;;;14.40;99.90;;;;;;4991153;28;20045;-62
2022/05/31 08:16:05;;;;;;;7.20;3.90;;;14.60;99.90;;;;;;4989908;28;20074;-62
2022/05/31 08:18:31;;;;;;;7.75;3.80;;;14.70;99.90;;;;;;4991991;28;20067;-62
2022/05/31 08:21:10;;;;;;;6.05;3.90;;;14.80;99.90;;;;;;4995746;28;20033;-66
2022/05/31 08:23:37;;;;;;;7.30;3.92;;;15.00;99.90;;;;;;4992076;28;20041;-62
2022/05/31 08:26:04;;;;;;;6.63;3.78;;;15.10;99.90;;;;;;4996220;28;20038;-62
2022/05/31 08:28:31;;;;;;;6.20;4.10;;;15.30;99.90;;;;;;4988103;28;20271;-64
2022/05/31 08:31:04;;;;;;;7.97;3.53;;;15.40;99.90;;;;;;4979914;28;20587;-64
2022/05/31 08:33:29;;;;;;;6.07;3.90;;;15.50;99.90;;;;;;5008530;28;20049;-67
2022/05/31 08:35:56;;;;;;;6.22;3.95;;;15.60;99.90;;;;;;4991395;28;20045;-65
2022/05/31 08:38:22;;;;;;;8.35;3.83;;;15.70;99.90;;;;;;4989198;28;20173;-64
2022/05/31 08:41:19;;;;;;;6.55;3.85;;;15.90;99.90;;;;;;4986512;28;20101;-64
2022/05/31 08:43:47;;;;;;;5.93;4.05;;;16.00;99.90;;;;;;4983135;28;20125;-64
2022/05/31 08:46:58;;;;;;;7.47;3.85;;;16.00;99.90;;;;;;4986555;28;20117;-63
2022/05/31 08:52:32;;;;;;;5.53;4.07;;;16.00;99.90;;;;;;4988565;28;20075;-62
2022/05/31 08:57:53;;;;;;;6.65;4.15;;;16.30;99.90;;;;;;4991892;28;20077;-62
2022/05/31 09:00:26;;;;;;;5.95;4.07;;;16.50;99.90;;;;;;4993030;28;20121;-64
2022/05/31 09:02:58;;;;;;;6.68;4.47;;;16.30;99.50;;;;;;4994356;28;20048;-63
2022/05/31 09:05:35;;;;;;;7.88;4.10;;;16.20;99.60;;;;;;4983713;28;20042;-64
2022/05/31 09:08:26;;;;;;;5.95;4.10;;;16.10;99.60;;;;;;4996431;28;20077;-64
2022/05/31 09:11:02;;;;;;;8.13;4.80;;;15.90;99.50;;;;;;4981921;28;20169;-63
2022/05/31 09:13:41;;;;;;;6.20;4.63;;;15.80;99.20;;;;;;4981529;28;20092;-63
2022/05/31 09:16:13;;;;;;;5.78;4.47;;;15.70;99.90;;;;;;4986979;28;20709;-63
2022/05/31 09:18:52;;;;;;;7.43;4.45;;;15.70;99.90;;;;;;4991673;28;20050;-63
2022/05/31 09:21:30;;;;;;;7.57;4.18;;;15.80;99.70;;;;;;4989245;28;20049;-62
2022/05/31 09:23:56;;;;;;;7.85;5.38;;;15.80;99.50;;;;;;4978582;28;20046;-63
2022/05/31 09:26:51;;;;;;;13.25;6.00;;;15.80;99.40;;;;;;4987547;28;20404;-65
2022/05/31 09:29:35;;;;;;;6.68;5.20;;;15.80;98.20;;;;;;4980265;28;20390;-64
2022/05/31 09:32:05;;;;;;;;;;;15.80;98.80;;;;;;4992680;28;20437;-66
2022/05/31 09:35:15;;;;;;;6.63;4.05;;;15.80;99.00;;;;;;4982321;28;19917;-63
2022/05/31 09:37:42;;;;;;;9.98;4.60;;;16.00;99.00;;;;;;4952841;28;22096;-65
2022/05/31 09:40:29;;;;;;;7.88;4.80;;;16.30;98.30;;;;;;4972658;28;20111;-63
2022/05/31 09:43:17;;;;;;;7.72;4.60;;;16.70;98.10;;;;;;4979803;28;20046;-62
2022/05/31 09:45:59;;;;;;;7.82;4.45;;;17.10;96.00;;;;;;4976459;28;20821;-64
2022/05/31 09:48:25;;;;;;;6.43;4.50;;;17.40;96.20;;;;;;4990556;28;20053;-64
2022/05/31 09:50:58;;;;;;;9.38;5.03;;;17.60;94.80;;;;;;4979353;28;20100;-61
2022/05/31 09:59:12;;;;;;;11.05;5.38;;;18.00;94.00;;;;;;4976926;28;20050;-61
2022/05/31 10:01:46;;;;;;;7.30;4.90;;;17.80;90.60;;;;;;4989089;28;20069;-61
2022/05/31 10:04:26;;;;;;;7.15;4.88;;;17.60;91.10;;;;;;4989409;28;20396;-61
2022/05/31 10:07:07;;;;;;;10.68;6.28;;;17.40;90.30;;;;;;4969249;28;20444;-64
2022/05/31 10:09:43;;;;;;;9.90;5.85;;;17.30;91.40;;;;;;4984218;28;20678;-62
2022/05/31 10:12:16;;;;;;;8.90;5.88;;;17.30;91.90;;;;;;4980295;28;20125;-62
2022/05/31 10:14:48;;;;;;;10.40;5.82;;;17.30;92.70;;;;;;4990779;28;20052;-62
2022/05/31 10:17:42;;;;;;;11.63;5.30;;;17.20;91.30;;;;;;4976054;28;20377;-61
2022/05/31 10:20:19;;;;;;;9.10;4.78;;;17.10;91.60;;;;;;4988249;28;20038;-62
2022/05/31 10:23:15;;;;;;;7.43;5.72;;;17.00;92.30;;;;;;4981101;28;20046;-65
2022/05/31 10:25:54;;;;;;;8.55;6.40;;;16.80;88.70;;;;;;4988025;28;20062;-61
2022/05/31 10:28:26;;;;;;;9.50;5.95;;;16.60;88.90;;;;;;4983458;28;20069;-65
2022/05/31 10:30:59;;;;;;;8.52;5.40;;;16.50;89.90;;;;;;4987714;28;20038;-62
2022/05/31 10:33:26;;;;;;;10.38;6.55;;;16.40;90.60;;;;;;4990354;28;20042;-62
2022/05/31 10:36:07;;;;;;;8.40;5.82;;;16.40;91.60;;;;;;4982845;28;20477;-62
2022/05/31 10:38:33;;;;;;;8.57;5.30;;;16.40;91.60;;;;;;4986460;28;20045;-65
2022/05/31 10:41:05;;;;;;;9.07;5.55;;;16.50;92.30;;;;;;5007189;23;20056;-57
2022/05/31 10:43:36;;;;;;;10.50;7.07;;;16.60;92.50;;;;;;5000111;28;20045;-56
2022/05/31 10:46:19;;;;;;;8.90;5.38;;;16.70;91.60;;;;;;5002043;28;20063;-59
2022/05/31 10:48:50;;;;;;;7.13;5.43;;;16.80;91.40;;;;;;5000759;28;20071;-59
2022/05/31 10:51:37;;;;;;;10.23;6.03;;;17.00;92.20;;;;;;4992122;28;20038;-59
2022/05/31 10:54:28;;;;;;;8.73;5.10;;;17.10;92.40;;;;;;5009250;28;20034;-61
2022/05/31 10:57:29;;;;;;;8.85;5.85;;;17.30;91.00;;;;;;5011005;28;20049;-56
2022/05/31 11:00:22;;;;;;;8.55;5.63;;;17.40;90.40;;;;;;4954764;28;20215;-58
2022/05/31 11:03:11;;;;;;;7.00;4.80;;;17.50;90.40;;;;;;5004358;28;20054;-58
2022/05/31 11:06:02;;;;;;;6.63;4.82;;;17.70;91.10;;;;;;4990810;28;20049;-58
2022/05/31 11:12:00;;;;;;;8.10;4.53;;;17.70;87.80;;;;;;5006231;28;20045;-58
2022/05/31 11:14:34;;;;;;;7.50;4.72;;;17.90;86.60;;;;;;5000156;28;20049;-57
2022/05/31 11:17:09;;;;;;;5.88;3.97;;;18.30;87.40;;;;;;5005857;28;20671;-58
2022/05/31 11:19:54;;;;;;;8.13;4.38;;;18.50;86.80;;;;;;5012543;28;20042;-58
2022/05/31 11:22:32;;;;;;;7.53;4.55;;;18.70;84.30;;;;;;5020430;28;20033;-59
2022/05/31 11:25:19;;;;;;;8.10;5.20;;;18.60;81.80;;;;;;5011946;28;20120;-60
2022/05/31 11:28:04;;;;;;;9.10;3.90;;;18.50;79.80;;;;;;5017546;28;20056;-58
2022/05/31 11:30:47;;;;;;;10.38;4.90;;;18.40;84.20;;;;;;5017004;28;20100;-59
2022/05/31 11:33:18;;;;;;;7.57;4.97;;;18.30;82.30;;;;;;5011365;28;20030;-58
2022/05/31 11:36:00;;;;;;;9.40;4.88;;;18.10;81.40;;;;;;5004151;28;20519;-59
2022/05/31 11:38:46;;;;;;;9.50;4.95;;;17.90;79.40;;;;;;5000184;28;20504;-57
2022/05/31 11:41:54;;;;;;;8.23;4.57;;;17.70;79.30;;;;;;5004742;28;20099;-57
2022/05/31 11:44:47;;;;;;;7.32;4.50;;;17.70;81.90;;;;;;5012428;28;20053;-56
2022/05/31 11:47:47;;;;;;;8.02;4.20;;;17.70;82.30;;;;;;5019341;28;20046;-57
2022/05/31 11:50:44;;;;;;;8.88;4.20;;;17.70;82.30;;;;;;5018716;28;20057;-58
2022/05/31 11:53:43;;;;;;;5.72;3.85;;;17.80;81.20;;;;;;4998273;28;20034;-58
2022/05/31 11:56:28;;;;;;;7.38;4.05;;;17.70;80.80;;;;;;5007304;28;20034;-61
2022/05/31 11:58:56;;;;;;;6.97;4.38;;;17.70;80.10;;;;;;5014788;28;20112;-58
2022/05/31 12:01:49;;;;;;;6.80;3.72;;;17.60;78.90;;;;;;5010351;28;20103;-56
2022/05/31 12:04:33;;;;;;;8.18;3.70;;;17.50;79.30;;;;;;4999134;28;20075;-57
2022/05/31 12:07:12;;;;;;;7.95;3.40;;;17.50;79.60;;;;;;5007308;28;20045;-58
2022/05/31 12:09:53;;;;;;;6.65;3.60;;;17.50;79.10;;;;;;5002413;28;20057;-59
2022/05/31 12:12:30;;;;;;;5.60;3.78;;;17.50;79.00;;;;;;5013617;28;20037;-57
2022/05/31 12:15:10;;;;;;;10.30;4.95;;;17.40;79.10;;;;;;5005305;28;20041;-58
2022/05/31 12:18:14;;;;;;;4.72;3.58;;;17.40;78.60;;;;;;5008708;28;20081;-57
2022/05/31 12:21:33;;;;;;;7.07;3.78;;;17.30;77.00;;;;;;4901161;29;20070;-58
2022/05/31 12:24:24;;;;;;;6.13;4.15;;;17.20;75.90;;;;;;4935508;28;20047;-57
2022/05/31 12:27:05;;;;;;;7.90;4.15;;;17.10;77.90;;;;;;5009587;28;20699;-57
2022/05/31 12:29:39;;;;;;;9.15;4.38;;;17.10;78.70;;;;;;5027103;28;20053;-60
2022/05/31 12:32:20;;;;;;;7.10;4.88;;;17.00;78.80;;;;;;5010392;28;20491;-59
2022/05/31 12:34:47;;;;;;;7.60;4.35;;;16.90;75.70;;;;;;5016609;28;20100;-59
2022/05/31 12:37:14;;;;;;;6.60;4.60;;;16.60;78.10;;;;;;5013244;28;20045;-58
2022/05/31 12:39:47;;;;;;;8.50;4.05;;;16.50;79.40;;;;;;5012315;28;20041;-58
2022/05/31 12:42:13;;;;;;;6.33;4.03;;;16.40;80.90;;;;;;5012090;28;20386;-57
2022/05/31 12:44:41;;;;;;;10.10;5.20;;;16.30;82.40;;;;;;5009017;28;20050;-55
2022/05/31 12:47:10;;;;;;;8.40;4.10;;;16.20;83.20;;;;;;5024963;28;20211;-57
2022/05/31 12:49:48;;;;;;;9.20;4.72;;;16.10;84.20;;;;;;5017999;28;20077;-57
2022/05/31 12:54:59;;;;;;;6.40;4.35;;;16.00;86.40;;;;;;5014663;28;20045;-58
2022/05/31 13:00:33;;;;;;;9.88;3.83;;;16.00;87.00;;;;;;5013458;28;20053;-58
2022/05/31 13:03:05;;;;;;;5.90;3.60;;;16.00;88.10;;;;;;5006798;28;20053;-57
2022/05/31 13:05:38;;;;;;;7.38;3.67;;;16.00;87.70;;;;;;5010302;28;20566;-57
2022/05/31 13:08:14;;;;;;;5.18;3.70;;;15.90;87.50;;;;;;5007434;28;20452;-60
2022/05/31 13:19:34;;;;;;;7.22;5.13;;;16.00;89.50;;;;;;5012331;28;20037;-56
2022/05/31 13:22:06;;;;;;;8.30;5.20;;;15.90;91.40;;;;;;5007690;28;20041;-57
2022/05/31 13:24:37;;;;;;;8.77;6.28;;;15.70;92.40;;;;;;4997982;28;20045;-58
2022/05/31 13:27:07;;;;;;;10.57;6.75;;;15.60;93.10;;;;;;5008475;28;20060;-59
2022/05/31 13:29:32;;;;;;;10.48;7.15;;;15.60;94.10;;;;;;4999405;28;20191;-58
2022/05/31 13:32:03;;;;;;;9.73;7.03;;;15.50;95.10;;;;;;5005046;28;20524;-58
2022/05/31 13:34:42;;;;;;;9.18;7.18;;;15.50;96.50;;;;;;5005031;28;20128;-58
2022/05/31 13:37:21;;;;;;;9.65;7.32;;;15.50;96.80;;;;;;4999939;28;20053;-60
2022/05/31 13:39:49;;;;;;;10.77;7.03;;;15.50;97.30;;;;;;4993877;28;20463;-58
2022/05/31 13:42:38;;;;;;;13.25;6.45;;;15.40;97.10;;;;;;4998131;28;20488;-58
2022/05/31 13:45:08;;;;;;;8.43;5.82;;;15.50;96.40;;;;;;5009250;28;20041;-60
2022/05/31 13:47:34;;;;;;;8.32;5.72;;;15.40;96.50;;;;;;5010708;28;20131;-57
2022/05/31 13:50:06;;;;;;;9.73;6.20;;;15.50;96.90;;;;;;5012442;28;20131;-57
2022/05/31 13:52:32;;;;;;;12.13;6.57;;;15.50;97.10;;;;;;4999388;28;20198;-55
2022/05/31 13:55:13;;;;;;;6.22;5.57;;;15.60;97.60;;;;;;5010877;28;20128;-58
2022/05/31 13:57:51;;;;;;;8.10;5.90;;;15.60;97.60;;;;;;5007447;28;20034;-62